createdAt,value
2023-02-23T00:01:28.598Z,39.50
2023-02-23T00:03:58.225Z,38.33
2023-02-23T00:06:26.999Z,38.67
2023-02-23T00:08:54.918Z,39.95
2023-02-23T00:11:22.579Z,40.15
2023-02-23T00:13:50.946Z,40.00
2023-02-23T00:16:23.955Z,38.75
2023-02-23T00:19:00.486Z,38.83
2023-02-23T00:21:30.344Z,39.85
2023-02-23T00:23:59.925Z,37.47
2023-02-23T00:26:34.719Z,36.72
2023-02-23T00:29:07.937Z,36.95
2023-02-23T00:31:35.901Z,35.13
2023-02-23T00:34:04.204Z,36.88
2023-02-23T00:36:33.624Z,36.17
2023-02-23T00:39:06.446Z,36.28
2023-02-23T00:41:33.269Z,35.97
2023-02-23T00:44:01.181Z,35.33
2023-02-23T00:46:30.354Z,36.50
2023-02-23T00:48:59.151Z,35.90
2023-02-23T00:51:30.987Z,34.88
2023-02-23T00:54:00.028Z,35.67
2023-02-23T00:56:27.762Z,33.78
2023-02-23T00:58:55.436Z,33.05
2023-02-23T01:01:23.042Z,33.70
2023-02-23T01:03:50.608Z,34.30
2023-02-23T01:06:17.825Z,34.42
2023-02-23T01:08:50.271Z,33.28
2023-02-23T01:11:22.752Z,34.08
2023-02-23T01:13:53.370Z,33.33
2023-02-23T01:16:22.805Z,32.53
2023-02-23T01:18:50.029Z,32.70
2023-02-23T01:21:20.288Z,32.70
2023-02-23T01:23:47.836Z,34.03
2023-02-23T01:26:24.932Z,34.30
2023-02-23T01:28:54.405Z,34.25
2023-02-23T01:31:23.644Z,32.95
2023-02-23T01:33:58.158Z,34.05
2023-02-23T01:36:25.872Z,34.55
2023-02-23T01:38:56.953Z,35.28
2023-02-23T01:41:25.167Z,36.75
2023-02-23T01:43:56.115Z,36.92
2023-02-23T01:46:23.119Z,36.65
2023-02-23T01:48:51.733Z,36.28
2023-02-23T01:51:21.068Z,34.65
2023-02-23T01:54:11.154Z,36.90
2023-02-23T01:56:43.567Z,35.78
2023-02-23T01:59:13.612Z,36.60
2023-02-23T02:01:42.147Z,37.63
2023-02-23T02:04:16.521Z,37.72
2023-02-23T02:06:45.778Z,37.38
2023-02-23T02:09:19.667Z,36.97
2023-02-23T02:11:54.093Z,37.35
2023-02-23T02:14:31.765Z,36.30
2023-02-23T02:17:16.354Z,35.67
2023-02-23T02:19:55.393Z,35.13
2023-02-23T02:22:34.462Z,34.92
2023-02-23T02:25:32.219Z,35.58
2023-02-23T02:28:22.295Z,36.38
2023-02-23T02:31:10.566Z,37.33
2023-02-23T02:34:02.108Z,35.70
2023-02-23T02:36:50.101Z,36.17
2023-02-23T02:39:40.220Z,37.60
2023-02-23T02:42:22.661Z,37.17
2023-02-23T02:45:00.245Z,37.97
2023-02-23T02:47:29.089Z,39.65
2023-02-23T02:49:59.386Z,35.95
2023-02-23T02:52:44.976Z,37.25
2023-02-23T02:55:37.488Z,35.97
2023-02-23T02:58:08.105Z,33.75
2023-02-23T03:01:03.555Z,35.20
2023-02-23T03:03:52.484Z,37.28
2023-02-23T03:06:40.480Z,34.55
2023-02-23T03:09:44.702Z,36.00
2023-02-23T03:12:50.547Z,37.10
2023-02-23T03:16:01.971Z,35.47
2023-02-23T03:19:07.981Z,35.08
2023-02-23T03:22:15.632Z,36.42
2023-02-23T03:25:32.229Z,35.50
2023-02-23T03:28:31.884Z,33.28
2023-02-23T03:31:25.392Z,34.47
2023-02-23T03:34:37.018Z,33.55
2023-02-23T03:37:34.412Z,33.55
2023-02-23T03:40:38.025Z,32.88
2023-02-23T03:43:30.875Z,32.17
2023-02-23T03:46:17.495Z,32.70
2023-02-23T03:49:04.821Z,33.35
2023-02-23T03:51:54.950Z,32.05
2023-02-23T03:54:54.375Z,34.50
2023-02-23T03:57:43.993Z,32.22
2023-02-23T04:00:35.997Z,34.65
2023-02-23T04:03:23.760Z,34.38
2023-02-23T04:06:13.068Z,34.00
2023-02-23T04:08:59.462Z,33.00
2023-02-23T04:11:58.171Z,34.50
2023-02-23T04:14:35.322Z,34.25
2023-02-23T04:17:04.271Z,34.88
2023-02-23T04:19:31.083Z,32.13
2023-02-23T04:21:57.988Z,34.45
2023-02-23T04:24:24.857Z,35.17
2023-02-23T04:26:51.681Z,40.42
2023-02-23T04:29:18.524Z,36.67
2023-02-23T04:31:46.187Z,37.88
2023-02-23T04:34:14.386Z,38.20
2023-02-23T04:36:41.276Z,37.70
2023-02-23T04:39:08.276Z,39.47
2023-02-23T04:41:35.310Z,35.97
2023-02-23T04:44:02.303Z,37.80
2023-02-23T04:46:32.398Z,37.25
2023-02-23T04:48:59.229Z,36.00
2023-02-23T04:51:30.861Z,34.67
2023-02-23T04:53:58.286Z,34.67
2023-02-23T04:56:25.911Z,36.22
2023-02-23T04:58:53.572Z,34.17
2023-02-23T05:01:22.526Z,33.45
2023-02-23T05:03:50.499Z,31.70
2023-02-23T05:06:18.550Z,33.28
2023-02-23T05:08:45.770Z,34.78
2023-02-23T05:11:13.229Z,33.55
2023-02-23T05:13:40.260Z,32.83
2023-02-23T05:16:07.876Z,32.58
2023-02-23T05:18:35.114Z,33.00
2023-02-23T05:21:05.435Z,34.83
2023-02-23T05:23:32.738Z,35.55
2023-02-23T05:26:07.137Z,35.20
2023-02-23T05:28:35.919Z,38.40
2023-02-23T05:31:04.610Z,38.80
2023-02-23T05:33:33.561Z,40.15
2023-02-23T05:36:01.059Z,40.40
2023-02-23T05:38:28.012Z,40.08
2023-02-23T05:40:55.015Z,37.50
2023-02-23T05:43:21.884Z,35.38
2023-02-23T05:45:48.804Z,34.80
2023-02-23T05:48:15.749Z,34.33
2023-02-23T05:50:42.807Z,35.42
2023-02-23T05:53:10.444Z,33.63
2023-02-23T05:55:37.686Z,32.45
2023-02-23T05:58:04.573Z,33.20
2023-02-23T06:00:31.437Z,32.15
2023-02-23T06:02:58.401Z,33.15
2023-02-23T06:05:25.287Z,31.52
2023-02-23T06:07:54.336Z,31.70
2023-02-23T06:10:21.148Z,32.90
2023-02-23T06:12:48.091Z,32.00
2023-02-23T06:15:15.184Z,34.58
2023-02-23T06:17:42.404Z,31.10
2023-02-23T06:20:12.864Z,33.38
2023-02-23T06:22:39.778Z,32.97
2023-02-23T06:25:12.679Z,30.90
2023-02-23T06:27:40.419Z,30.92
2023-02-23T06:30:08.092Z,32.58
2023-02-23T06:32:34.937Z,32.33
2023-02-23T06:35:02.319Z,34.08
2023-02-23T06:37:29.291Z,32.53
2023-02-23T06:39:56.155Z,32.50
2023-02-23T06:42:23.012Z,33.70
2023-02-23T06:44:50.037Z,32.85
2023-02-23T06:47:17.586Z,32.95
2023-02-23T06:49:44.705Z,33.72
2023-02-23T06:52:13.694Z,32.58
2023-02-23T06:54:41.926Z,32.17
2023-02-23T06:57:09.834Z,35.53
2023-02-23T06:59:36.959Z,33.58
2023-02-23T07:02:05.851Z,35.28
2023-02-23T07:04:33.134Z,35.75
2023-02-23T07:07:00.057Z,32.45
2023-02-23T07:09:27.720Z,35.40
2023-02-23T07:11:55.854Z,32.92
2023-02-23T07:14:26.849Z,33.63
2023-02-23T07:16:54.767Z,31.05
2023-02-23T07:19:21.934Z,33.30
2023-02-23T07:21:48.791Z,33.05
2023-02-23T07:24:15.636Z,33.58
2023-02-23T07:26:46.835Z,32.78
2023-02-23T07:29:14.038Z,35.55
2023-02-23T07:31:41.290Z,35.90
2023-02-23T07:34:09.717Z,35.55
2023-02-23T07:36:37.164Z,33.33
2023-02-23T07:39:05.291Z,34.58
2023-02-23T07:41:32.729Z,34.55
2023-02-23T07:44:00.335Z,35.20
2023-02-23T07:46:27.526Z,35.63
2023-02-23T07:48:54.476Z,35.05
2023-02-23T07:51:21.736Z,34.35
2023-02-23T07:53:49.531Z,37.30
2023-02-23T07:56:16.567Z,37.78
2023-02-23T07:58:44.774Z,36.25
2023-02-23T08:01:13.212Z,39.20
2023-02-23T08:03:40.159Z,39.90
2023-02-23T08:06:07.666Z,39.90
2023-02-23T08:08:35.529Z,38.10
2023-02-23T08:11:04.066Z,37.60
2023-02-23T08:13:31.925Z,37.38
2023-02-23T08:15:59.364Z,37.88
2023-02-23T08:18:26.431Z,38.42
2023-02-23T08:20:59.438Z,36.88
2023-02-23T08:23:26.756Z,39.70
2023-02-23T08:25:54.748Z,38.75
2023-02-23T08:28:22.215Z,38.88
2023-02-23T08:30:49.144Z,39.78
2023-02-23T08:33:16.009Z,38.67
2023-02-23T08:35:42.871Z,40.60
2023-02-23T08:38:09.670Z,40.10
2023-02-23T08:40:36.630Z,39.92
2023-02-23T08:43:03.723Z,39.70
2023-02-23T08:45:30.657Z,40.17
2023-02-23T08:47:57.651Z,40.80
2023-02-23T08:50:27.216Z,41.38
2023-02-23T08:52:54.505Z,43.10
2023-02-23T08:55:21.861Z,43.90
2023-02-23T08:57:49.943Z,44.38
2023-02-23T09:00:17.673Z,45.50
2023-02-23T09:02:49.696Z,54.22
2023-02-23T09:05:17.507Z,54.28
2023-02-23T09:07:45.375Z,46.63
2023-02-23T09:10:19.852Z,44.28
2023-02-23T09:12:47.036Z,43.00
2023-02-23T09:15:14.017Z,44.03
2023-02-23T09:17:45.012Z,41.08
2023-02-23T09:20:13.685Z,44.03
2023-02-23T09:22:45.546Z,42.85
2023-02-23T09:25:13.108Z,42.25
2023-02-23T09:27:39.950Z,41.55
2023-02-23T09:30:07.418Z,40.25
2023-02-23T09:32:34.585Z,39.67
2023-02-23T09:35:01.701Z,40.13
2023-02-23T09:37:28.854Z,37.97
2023-02-23T09:39:57.927Z,40.60
2023-02-23T09:42:41.290Z,38.30
2023-02-23T09:45:27.234Z,36.83
2023-02-23T09:48:17.348Z,35.90
2023-02-23T09:50:49.346Z,35.25
2023-02-23T09:53:33.953Z,35.58
2023-02-23T09:56:03.359Z,36.03
2023-02-23T09:58:33.962Z,40.55
2023-02-23T10:01:07.052Z,36.83
2023-02-23T10:03:38.832Z,36.53
2023-02-23T10:06:11.331Z,36.25
2023-02-23T10:08:56.414Z,35.92
2023-02-23T10:11:25.782Z,36.25
2023-02-23T10:14:02.053Z,37.13
2023-02-23T10:16:53.327Z,37.38
2023-02-23T10:19:34.720Z,33.38
2023-02-23T10:22:07.469Z,32.88
2023-02-23T10:24:39.202Z,32.83
2023-02-23T10:27:25.327Z,33.83
2023-02-23T10:29:54.918Z,33.97
2023-02-23T10:32:49.429Z,35.72
2023-02-23T10:35:19.524Z,34.45
2023-02-23T10:37:47.496Z,34.38
2023-02-23T10:40:25.298Z,33.75
2023-02-23T10:42:52.729Z,33.60
2023-02-23T10:45:25.790Z,32.25
2023-02-23T10:48:00.939Z,33.70
2023-02-23T10:50:29.349Z,31.77
2023-02-23T10:53:04.690Z,31.92
2023-02-23T10:55:32.593Z,34.20
2023-02-23T10:58:10.129Z,32.13
2023-02-23T11:00:41.280Z,28.10
2023-02-23T11:03:22.731Z,30.17
2023-02-23T11:05:52.783Z,29.60
2023-02-23T11:08:21.377Z,28.73
2023-02-23T11:11:12.594Z,28.25
2023-02-23T11:13:45.548Z,31.08
2023-02-23T11:16:30.652Z,29.35
2023-02-23T11:18:59.368Z,29.73
2023-02-23T11:21:33.682Z,29.52
2023-02-23T11:24:27.884Z,29.67
2023-02-23T11:27:00.455Z,29.50
2023-02-23T11:29:35.422Z,30.45
2023-02-23T11:32:23.622Z,30.92
2023-02-23T11:35:12.484Z,30.13
2023-02-23T11:37:39.829Z,29.25
2023-02-23T11:40:22.135Z,30.17
2023-02-23T11:43:06.395Z,28.83
2023-02-23T11:45:49.068Z,30.67
2023-02-23T11:48:51.437Z,32.00
2023-02-23T11:51:25.781Z,30.52
2023-02-23T11:53:53.095Z,31.08
2023-02-23T11:56:23.871Z,30.67
2023-02-23T11:58:53.896Z,30.30
2023-02-23T12:01:46.822Z,31.20
2023-02-23T12:04:30.367Z,32.83
2023-02-23T12:07:38.854Z,29.67
2023-02-23T12:10:26.977Z,31.45
2023-02-23T12:13:25.356Z,31.95
2023-02-23T12:16:12.221Z,33.75
2023-02-23T12:18:41.952Z,29.42
2023-02-23T12:21:16.269Z,30.77
2023-02-23T12:23:48.682Z,31.20
2023-02-23T12:26:20.337Z,29.75
2023-02-23T12:28:54.772Z,31.05
2023-02-23T12:31:46.524Z,28.88
2023-02-23T12:34:19.266Z,29.10
2023-02-23T12:36:50.502Z,29.70
2023-02-23T12:39:35.829Z,28.27
2023-02-23T12:42:06.036Z,28.60
2023-02-23T12:44:58.808Z,27.95
2023-02-23T12:47:34.569Z,27.58
2023-02-23T12:50:24.287Z,27.52
2023-02-23T12:53:01.680Z,25.52
2023-02-23T12:55:41.950Z,28.17
2023-02-23T12:58:33.516Z,27.65
2023-02-23T13:01:09.504Z,27.23
2023-02-23T13:03:57.547Z,25.77
2023-02-23T13:06:30.551Z,25.83
2023-02-23T13:09:15.056Z,26.40
2023-02-23T13:11:59.899Z,25.30
2023-02-23T13:14:43.322Z,26.83
2023-02-23T13:17:36.073Z,26.77
2023-02-23T13:20:25.678Z,27.42
2023-02-23T13:22:57.745Z,25.95
2023-02-23T13:25:37.132Z,27.58
2023-02-23T13:28:06.344Z,25.45
2023-02-23T13:30:33.856Z,26.50
2023-02-23T13:33:06.367Z,26.88
2023-02-23T13:35:36.158Z,27.55
2023-02-23T13:38:32.491Z,27.27
2023-02-23T13:41:29.584Z,26.85
2023-02-23T13:44:09.393Z,25.98
2023-02-23T13:46:42.665Z,26.00
2023-02-23T13:49:38.282Z,24.58
2023-02-23T13:52:29.532Z,24.75
2023-02-23T13:55:04.006Z,23.35
2023-02-23T13:57:33.120Z,21.83
2023-02-23T14:00:00.865Z,22.85
2023-02-23T14:02:33.167Z,22.20
2023-02-23T14:05:15.727Z,21.42
2023-02-23T14:07:45.532Z,21.20
2023-02-23T14:10:21.704Z,22.42
2023-02-23T14:13:26.426Z,21.63
2023-02-23T14:16:14.837Z,21.30
2023-02-23T14:19:03.548Z,21.88
2023-02-23T14:21:31.809Z,21.77
2023-02-23T14:24:13.701Z,21.70
2023-02-23T14:26:43.701Z,21.60
2023-02-23T14:29:20.137Z,20.42
2023-02-23T14:31:58.896Z,21.33
2023-02-23T14:34:51.185Z,21.65
2023-02-23T14:37:37.205Z,22.05
2023-02-23T14:40:10.527Z,20.95
2023-02-23T14:42:39.405Z,19.65
2023-02-23T14:45:19.605Z,20.23
2023-02-23T14:47:48.687Z,19.70
2023-02-23T14:50:27.574Z,20.45
2023-02-23T14:52:56.944Z,19.58
2023-02-23T14:55:29.704Z,19.13
2023-02-23T14:57:58.189Z,20.38
2023-02-23T15:00:28.594Z,20.45
2023-02-23T15:03:12.847Z,20.20
2023-02-23T15:05:50.176Z,20.70
2023-02-23T15:08:23.245Z,17.55
2023-02-23T15:11:12.380Z,19.35
2023-02-23T15:13:50.951Z,19.75
2023-02-23T15:16:17.860Z,19.20
2023-02-23T15:18:45.166Z,17.88
2023-02-23T15:21:18.876Z,17.63
2023-02-23T15:23:49.280Z,15.63
2023-02-23T15:26:27.503Z,17.65
2023-02-23T15:28:54.283Z,15.15
2023-02-23T15:31:21.710Z,15.98
2023-02-23T15:33:51.069Z,14.48
2023-02-23T15:36:30.142Z,14.82
2023-02-23T15:38:59.866Z,14.98
2023-02-23T15:41:36.832Z,15.05
2023-02-23T15:44:13.054Z,13.45
2023-02-23T15:46:41.932Z,13.95
2023-02-23T15:49:14.369Z,14.52
2023-02-23T15:51:51.374Z,12.73
2023-02-23T15:54:27.092Z,12.48
2023-02-23T15:57:20.008Z,12.55
2023-02-23T15:59:48.987Z,12.63
2023-02-23T16:02:20.728Z,11.57
2023-02-23T16:04:54.060Z,11.95
2023-02-23T16:07:21.141Z,12.55
2023-02-23T16:09:52.576Z,11.93
2023-02-23T16:12:21.804Z,11.18
2023-02-23T16:15:14.954Z,11.45
2023-02-23T16:17:47.610Z,11.05
2023-02-23T16:20:15.029Z,10.82
2023-02-23T16:22:46.134Z,10.60
2023-02-23T16:25:16.281Z,13.00
2023-02-23T16:27:45.580Z,17.10
2023-02-23T16:30:23.516Z,16.48
2023-02-23T16:33:03.941Z,15.48
2023-02-23T16:35:41.903Z,15.45
2023-02-23T16:38:26.297Z,16.42
2023-02-23T16:40:53.734Z,11.90
2023-02-23T16:43:21.039Z,12.77
2023-02-23T16:45:48.149Z,9.57
2023-02-23T16:48:16.650Z,10.60
2023-02-23T16:50:45.661Z,11.00
2023-02-23T16:53:13.747Z,11.00
2023-02-23T16:56:12.547Z,11.18
2023-02-23T16:58:46.038Z,9.82
2023-02-23T17:01:18.680Z,9.27
2023-02-23T17:04:05.856Z,9.77
2023-02-23T17:06:32.802Z,10.77
2023-02-23T17:08:59.753Z,10.90
2023-02-23T17:11:27.193Z,9.70
2023-02-23T17:13:54.663Z,10.82
2023-02-23T17:16:22.022Z,9.88
2023-02-23T17:18:49.425Z,10.10
2023-02-23T17:21:23.098Z,10.77
2023-02-23T17:23:51.391Z,11.63
2023-02-23T17:26:21.648Z,10.93
2023-02-23T17:28:48.859Z,11.65
2023-02-23T17:31:18.077Z,12.65
2023-02-23T17:33:46.265Z,12.30
2023-02-23T17:36:16.783Z,16.60
2023-02-23T17:38:46.852Z,13.15
2023-02-23T17:41:17.537Z,13.45
2023-02-23T17:43:44.689Z,14.98
2023-02-23T17:46:12.909Z,14.32
2023-02-23T17:48:40.986Z,14.55
2023-02-23T17:51:10.214Z,14.25
2023-02-23T17:53:38.113Z,15.55
2023-02-23T17:56:05.590Z,13.38
2023-02-23T17:58:32.775Z,12.73
2023-02-23T18:01:02.474Z,13.02
2023-02-23T18:03:32.448Z,12.82
2023-02-23T18:06:08.531Z,12.55
2023-02-23T18:08:36.498Z,12.93
2023-02-23T18:11:03.851Z,11.80
2023-02-23T18:13:33.371Z,12.18
2023-02-23T18:16:03.067Z,10.88
2023-02-23T18:18:30.363Z,15.63
2023-02-23T18:20:59.734Z,14.35
2023-02-23T18:23:32.835Z,9.85
2023-02-23T18:26:08.823Z,9.20
2023-02-23T18:28:41.243Z,10.00
2023-02-23T18:31:08.351Z,9.55
2023-02-23T18:33:38.140Z,7.65
2023-02-23T18:36:18.105Z,8.57
2023-02-23T18:38:44.964Z,9.98
2023-02-23T18:41:11.876Z,8.10
2023-02-23T18:43:38.984Z,8.65
2023-02-23T18:46:08.046Z,11.10
2023-02-23T18:48:35.620Z,9.80
2023-02-23T18:51:05.778Z,8.68
2023-02-23T18:53:37.213Z,9.40
2023-02-23T18:56:27.941Z,9.25
2023-02-23T18:58:57.608Z,9.35
2023-02-23T19:01:27.831Z,10.38
2023-02-23T19:03:57.629Z,16.02
2023-02-23T19:06:25.437Z,10.02
2023-02-23T19:08:55.396Z,10.07
2023-02-23T19:11:27.395Z,8.95
2023-02-23T19:14:00.794Z,9.18
2023-02-23T19:16:31.173Z,8.77
2023-02-23T19:18:59.837Z,8.70
2023-02-23T19:21:26.691Z,9.82
2023-02-23T19:23:57.848Z,9.25
2023-02-23T19:26:25.652Z,11.38
2023-02-23T19:28:52.950Z,10.45
2023-02-23T19:31:22.439Z,8.93
2023-02-23T19:33:50.681Z,9.68
2023-02-23T19:36:20.614Z,7.50
2023-02-23T19:38:48.892Z,6.05
2023-02-23T19:41:19.454Z,7.03
2023-02-23T19:43:46.899Z,5.55
2023-02-23T19:46:17.281Z,6.07
2023-02-23T19:48:48.981Z,6.43
2023-02-23T19:51:15.939Z,6.45
2023-02-23T19:53:42.930Z,7.68
2023-02-23T19:56:16.723Z,6.72
2023-02-23T19:58:46.560Z,8.25
2023-02-23T20:01:19.412Z,8.40
2023-02-23T20:03:55.314Z,7.28
2023-02-23T20:06:25.335Z,7.55
2023-02-23T20:08:55.063Z,8.45
2023-02-23T20:11:23.360Z,8.75
2023-02-23T20:13:53.731Z,9.15
2023-02-23T20:16:21.246Z,9.90
2023-02-23T20:18:48.328Z,11.13
2023-02-23T20:21:18.089Z,10.95
2023-02-23T20:23:46.741Z,11.98
2023-02-23T20:26:19.729Z,11.73
2023-02-23T20:28:46.876Z,12.05
2023-02-23T20:31:30.706Z,12.38
2023-02-23T20:34:01.048Z,12.60
2023-02-23T20:36:28.140Z,11.18
2023-02-23T20:38:55.346Z,11.82
2023-02-23T20:41:22.924Z,11.75
2023-02-23T20:43:51.684Z,11.07
2023-02-23T20:46:19.904Z,11.10
2023-02-23T20:48:49.152Z,9.05
2023-02-23T20:51:19.296Z,9.20
2023-02-23T20:53:48.309Z,8.27
2023-02-23T20:56:17.471Z,8.10
2023-02-23T20:58:45.152Z,7.30
2023-02-23T21:01:16.894Z,6.40
2023-02-23T21:03:44.530Z,6.57
2023-02-23T21:06:11.609Z,5.72
2023-02-23T21:08:39.918Z,5.82
2023-02-23T21:11:08.800Z,6.00
2023-02-23T21:13:36.165Z,4.75
2023-02-23T21:16:03.418Z,5.25
2023-02-23T21:18:31.448Z,5.05
2023-02-23T21:21:09.959Z,5.53
2023-02-23T21:23:39.074Z,4.80
2023-02-23T21:26:16.136Z,4.78
2023-02-23T21:28:44.918Z,5.10
2023-02-23T21:31:13.566Z,5.50
2023-02-23T21:33:42.823Z,6.05
2023-02-23T21:36:11.286Z,5.05
2023-02-23T21:38:39.276Z,5.55
2023-02-23T21:41:07.094Z,4.75
2023-02-23T21:43:36.052Z,4.88
2023-02-23T21:46:09.828Z,5.70
2023-02-23T21:48:37.069Z,5.90
2023-02-23T21:51:07.353Z,5.45
2023-02-23T21:53:34.802Z,5.80
2023-02-23T21:56:12.966Z,5.05
2023-02-23T21:58:43.484Z,5.03
2023-02-23T22:01:19.762Z,5.75
2023-02-23T22:03:47.697Z,4.60
2023-02-23T22:06:18.227Z,5.10
2023-02-23T22:08:50.062Z,4.55
2023-02-23T22:11:24.683Z,4.82
2023-02-23T22:14:00.395Z,3.83
2023-02-23T22:16:33.686Z,4.53
2023-02-23T22:19:04.540Z,4.32
2023-02-23T22:21:37.321Z,4.70
2023-02-23T22:24:05.607Z,4.47
2023-02-23T22:26:37.709Z,4.72
2023-02-23T22:29:06.043Z,5.63
2023-02-23T22:31:33.286Z,4.32
2023-02-23T22:34:00.361Z,4.90
2023-02-23T22:36:27.220Z,4.60
2023-02-23T22:38:58.275Z,4.78
2023-02-23T22:41:29.449Z,4.13
2023-02-23T22:43:57.742Z,3.92
2023-02-23T22:46:25.928Z,4.60
2023-02-23T22:48:53.065Z,3.80
2023-02-23T22:51:20.672Z,4.80
2023-02-23T22:53:47.750Z,4.30
2023-02-23T22:56:14.894Z,4.30
2023-02-23T22:58:42.489Z,3.15
2023-02-23T23:01:12.040Z,3.45
2023-02-23T23:03:47.146Z,3.47
2023-02-23T23:06:17.526Z,3.28
2023-02-23T23:08:45.923Z,3.42
2023-02-23T23:11:18.922Z,3.38
2023-02-23T23:13:48.672Z,3.78
2023-02-23T23:16:32.067Z,3.72
2023-02-23T23:19:12.773Z,3.20
2023-02-23T23:21:41.697Z,4.93
2023-02-23T23:24:09.963Z,2.90
2023-02-23T23:26:40.909Z,2.85
2023-02-23T23:29:11.742Z,3.53
2023-02-23T23:31:40.548Z,3.42
2023-02-23T23:34:10.411Z,3.25
2023-02-23T23:36:46.244Z,2.97
2023-02-23T23:39:16.472Z,3.33
2023-02-23T23:41:48.001Z,3.60
2023-02-23T23:44:21.505Z,3.05
2023-02-23T23:46:53.032Z,3.47
2023-02-23T23:49:22.427Z,3.47
2023-02-23T23:51:52.061Z,4.15
2023-02-23T23:54:23.057Z,3.35
2023-02-23T23:56:50.991Z,3.13
2023-02-23T23:59:20.587Z,3.28
